createdAt,value
2022-09-23T00:00:27.300Z,2.70
2022-09-23T00:03:13.418Z,2.37
2022-09-23T00:06:04.398Z,2.50
2022-09-23T00:08:50.609Z,2.60
2022-09-23T00:11:36.475Z,2.70
2022-09-23T00:14:21.739Z,2.60
2022-09-23T00:17:07.326Z,2.07
2022-09-23T00:19:54.198Z,2.47
2022-09-23T00:22:39.935Z,2.67
2022-09-23T00:25:25.314Z,2.27
2022-09-23T00:28:10.636Z,2.60
2022-09-23T00:30:56.396Z,2.60
2022-09-23T00:33:42.289Z,2.23
2022-09-23T00:36:29.142Z,2.50
2022-09-23T00:39:14.840Z,2.57
2022-09-23T00:42:00.128Z,2.30
2022-09-23T00:44:56.209Z,2.30
2022-09-23T00:47:48.177Z,2.30
2022-09-23T00:50:40.329Z,2.27
2022-09-23T00:53:26.765Z,2.47
2022-09-23T00:56:13.982Z,2.17
2022-09-23T00:59:01.209Z,2.30
2022-09-23T01:01:49.715Z,2.23
2022-09-23T01:04:36.622Z,2.20
2022-09-23T01:07:22.029Z,2.13
2022-09-23T01:10:08.836Z,2.13
2022-09-23T01:13:16.042Z,2.00
2022-09-23T01:16:13.440Z,2.40
2022-09-23T01:19:20.428Z,2.13
2022-09-23T01:22:18.602Z,2.20
2022-09-23T01:25:10.073Z,2.10
2022-09-23T01:28:10.813Z,1.80
2022-09-23T01:31:08.517Z,1.90
2022-09-23T01:34:06.708Z,2.27
2022-09-23T01:36:59.343Z,1.90
2022-09-23T01:40:01.835Z,1.70
2022-09-23T01:42:54.027Z,2.07
2022-09-23T01:45:44.360Z,2.23
2022-09-23T01:48:52.573Z,1.73
2022-09-23T01:51:42.754Z,1.90
2022-09-23T01:54:43.908Z,1.63
2022-09-23T01:57:38.984Z,2.00
2022-09-23T02:00:25.581Z,1.80
2022-09-23T02:03:17.799Z,1.93
2022-09-23T02:06:11.334Z,1.87
2022-09-23T02:09:02.048Z,2.03
2022-09-23T02:11:52.518Z,2.30
2022-09-23T02:14:49.001Z,1.90
2022-09-23T02:17:54.327Z,1.90
2022-09-23T02:20:40.247Z,2.10
2022-09-23T02:23:31.895Z,1.50
2022-09-23T02:26:29.543Z,1.60
2022-09-23T02:29:27.542Z,1.70
2022-09-23T02:32:39.085Z,1.80
2022-09-23T02:35:34.716Z,2.07
2022-09-23T02:38:32.189Z,1.73
2022-09-23T02:41:28.141Z,1.60
2022-09-23T02:44:18.642Z,1.90
2022-09-23T02:47:04.020Z,1.67
2022-09-23T02:49:49.417Z,1.57
2022-09-23T02:52:36.732Z,1.83
2022-09-23T02:55:25.451Z,1.77
2022-09-23T02:58:14.063Z,1.83
2022-09-23T03:01:21.814Z,1.73
2022-09-23T03:04:07.117Z,1.57
2022-09-23T03:07:06.330Z,1.43
2022-09-23T03:10:09.636Z,1.83
2022-09-23T03:13:14.700Z,2.17
2022-09-23T03:16:11.902Z,2.43
2022-09-23T03:19:03.761Z,2.60
2022-09-23T03:22:01.027Z,2.50
2022-09-23T03:24:53.297Z,3.17
2022-09-23T03:27:42.405Z,3.67
2022-09-23T03:30:29.902Z,3.10
2022-09-23T03:33:18.647Z,3.43
2022-09-23T03:36:26.917Z,3.20
2022-09-23T03:39:24.174Z,3.90
2022-09-23T03:42:31.813Z,3.87
2022-09-23T03:45:21.971Z,4.00
2022-09-23T03:48:08.752Z,3.70
2022-09-23T03:50:54.292Z,3.67
2022-09-23T03:53:39.756Z,3.33
2022-09-23T03:56:25.061Z,3.83
2022-09-23T03:59:12.038Z,3.57
2022-09-23T04:01:59.813Z,3.50
2022-09-23T04:04:45.652Z,3.17
2022-09-23T04:07:31.449Z,3.47
2022-09-23T04:10:16.683Z,2.97
2022-09-23T04:13:01.912Z,3.50
2022-09-23T04:15:50.083Z,3.30
2022-09-23T04:18:35.435Z,4.13
2022-09-23T04:21:21.338Z,3.83
2022-09-23T04:24:08.008Z,3.40
2022-09-23T04:26:55.412Z,3.30
2022-09-23T04:29:40.942Z,3.00
2022-09-23T04:32:26.285Z,3.07
2022-09-23T04:35:11.504Z,3.30
2022-09-23T04:37:56.894Z,2.87
2022-09-23T04:40:42.113Z,2.80
2022-09-23T04:43:27.387Z,2.70
2022-09-23T04:46:15.083Z,2.97
2022-09-23T04:49:00.700Z,2.70
2022-09-23T04:51:47.613Z,2.97
2022-09-23T04:54:33.096Z,2.77
2022-09-23T04:57:18.775Z,2.73
2022-09-23T05:00:05.422Z,3.10
2022-09-23T05:02:51.352Z,3.20
2022-09-23T05:05:36.632Z,3.30
2022-09-23T05:08:22.162Z,3.20
2022-09-23T05:11:09.249Z,2.80
2022-09-23T05:13:55.107Z,2.60
2022-09-23T05:16:40.907Z,2.27
2022-09-23T05:19:26.365Z,2.60
2022-09-23T05:22:11.787Z,2.93
2022-09-23T05:24:59.851Z,2.70
2022-09-23T05:27:45.072Z,2.60
2022-09-23T05:30:30.415Z,2.63
2022-09-23T05:33:15.516Z,2.50
2022-09-23T05:36:01.491Z,2.23
2022-09-23T05:38:48.640Z,2.37
2022-09-23T05:41:34.100Z,2.27
2022-09-23T05:44:19.643Z,2.40
2022-09-23T05:47:05.503Z,2.70
2022-09-23T05:49:59.673Z,2.60
2022-09-23T05:52:46.088Z,2.87
2022-09-23T05:55:31.546Z,2.60
2022-09-23T05:58:16.943Z,2.83
2022-09-23T06:01:09.551Z,2.50
2022-09-23T06:03:56.398Z,2.60
2022-09-23T06:06:42.735Z,2.60
2022-09-23T06:09:30.825Z,2.87
2022-09-23T06:12:20.090Z,2.77
2022-09-23T06:15:06.312Z,2.20
2022-09-23T06:17:51.432Z,2.60
2022-09-23T06:20:37.430Z,2.67
2022-09-23T06:23:26.630Z,2.43
2022-09-23T06:26:14.252Z,2.70
2022-09-23T06:29:01.593Z,2.30
2022-09-23T06:31:49.753Z,2.67
2022-09-23T06:34:47.442Z,2.80
2022-09-23T06:37:36.066Z,2.57
2022-09-23T06:40:23.086Z,2.77
2022-09-23T06:43:08.600Z,2.50
2022-09-23T06:45:55.981Z,2.47
2022-09-23T06:48:46.144Z,2.50
2022-09-23T06:51:32.211Z,2.40
2022-09-23T06:54:17.744Z,2.57
2022-09-23T06:57:03.054Z,2.60
2022-09-23T06:59:48.306Z,2.70
2022-09-23T07:02:33.753Z,2.40
2022-09-23T07:05:19.044Z,2.43
2022-09-23T07:08:09.738Z,2.50
2022-09-23T07:11:00.151Z,2.53
2022-09-23T07:13:45.961Z,2.53
2022-09-23T07:16:32.895Z,2.27
2022-09-23T07:19:18.279Z,2.70
2022-09-23T07:22:03.775Z,2.90
2022-09-23T07:24:49.095Z,2.40
2022-09-23T07:27:34.377Z,2.60
2022-09-23T07:30:25.125Z,2.43
2022-09-23T07:33:27.083Z,2.57
2022-09-23T07:36:18.728Z,2.23
2022-09-23T07:39:04.035Z,2.10
2022-09-23T07:41:49.799Z,2.50
2022-09-23T07:44:35.645Z,2.20
2022-09-23T07:47:21.272Z,2.37
2022-09-23T07:50:11.536Z,2.60
2022-09-23T07:52:57.189Z,2.43
2022-09-23T07:55:42.362Z,2.63
2022-09-23T07:58:27.791Z,2.00
2022-09-23T08:01:13.766Z,2.37
2022-09-23T08:04:06.931Z,2.23
2022-09-23T08:06:55.417Z,2.00
2022-09-23T08:09:43.364Z,2.20
2022-09-23T08:12:32.154Z,2.27
2022-09-23T08:15:17.694Z,2.10
2022-09-23T08:18:03.224Z,2.43
2022-09-23T08:20:48.463Z,2.30
2022-09-23T08:23:33.969Z,2.40
2022-09-23T08:26:22.067Z,2.03
2022-09-23T08:29:10.202Z,2.17
2022-09-23T08:31:56.390Z,2.50
2022-09-23T08:34:42.543Z,2.20
2022-09-23T08:37:27.880Z,2.00
2022-09-23T08:40:13.779Z,2.40
2022-09-23T08:43:00.140Z,1.90
2022-09-23T08:45:46.352Z,1.97
2022-09-23T08:48:42.266Z,2.30
2022-09-23T08:51:41.298Z,2.23
2022-09-23T08:54:31.202Z,2.40
2022-09-23T08:57:34.043Z,2.17
2022-09-23T09:00:28.682Z,2.03
2022-09-23T09:03:24.829Z,1.83
2022-09-23T09:06:19.092Z,2.03
2022-09-23T09:09:09.471Z,2.10
2022-09-23T09:12:05.120Z,2.00
2022-09-23T09:14:57.109Z,2.30
2022-09-23T09:18:11.313Z,2.33
2022-09-23T09:20:59.889Z,1.90
2022-09-23T09:24:02.515Z,2.33
2022-09-23T09:26:48.093Z,1.77
2022-09-23T09:29:39.651Z,1.90
2022-09-23T09:32:47.314Z,2.20
2022-09-23T09:35:40.853Z,2.00
2022-09-23T09:38:27.583Z,1.50
2022-09-23T09:41:18.291Z,2.00
2022-09-23T09:44:21.147Z,2.00
2022-09-23T09:47:17.291Z,1.95
2022-09-23T09:50:08.531Z,1.63
2022-09-23T09:53:21.855Z,2.20
2022-09-23T09:56:16.546Z,1.63
2022-09-23T09:59:10.944Z,1.73
2022-09-23T10:02:21.574Z,1.50
2022-09-23T10:05:07.629Z,1.70
2022-09-23T10:07:54.449Z,1.70
2022-09-23T10:10:54.612Z,2.03
2022-09-23T10:13:39.718Z,1.73
2022-09-23T10:16:25.420Z,2.00
2022-09-23T10:19:27.745Z,1.80
2022-09-23T10:22:21.017Z,1.80
2022-09-23T10:25:36.536Z,1.40
2022-09-23T10:28:44.118Z,1.90
2022-09-23T10:31:32.317Z,1.60
2022-09-23T10:34:29.227Z,2.07
2022-09-23T10:37:32.275Z,1.77
2022-09-23T10:40:49.126Z,1.67
2022-09-23T10:44:11.453Z,1.90
2022-09-23T10:47:20.782Z,1.60
2022-09-23T10:50:23.760Z,1.93
2022-09-23T10:53:18.304Z,1.60
2022-09-23T10:56:06.642Z,1.80
2022-09-23T10:58:52.049Z,1.90
2022-09-23T11:02:02.119Z,1.77
2022-09-23T11:04:52.844Z,1.70
2022-09-23T11:08:18.333Z,1.80
2022-09-23T11:11:11.715Z,1.60
2022-09-23T11:14:24.460Z,1.80
2022-09-23T11:17:22.261Z,1.90
2022-09-23T11:20:31.646Z,1.80
2022-09-23T11:23:26.536Z,1.80
2022-09-23T11:26:33.260Z,1.80
2022-09-23T11:29:30.961Z,1.50
2022-09-23T11:32:39.668Z,2.00
2022-09-23T11:35:38.099Z,1.80
2022-09-23T11:38:45.861Z,1.80
2022-09-23T11:41:35.402Z,1.67
2022-09-23T11:44:29.406Z,1.73
2022-09-23T11:47:27.453Z,1.60
2022-09-23T11:50:25.909Z,1.37
2022-09-23T11:53:40.641Z,1.90
2022-09-23T11:56:49.267Z,1.70
2022-09-23T11:59:42.831Z,1.53
2022-09-23T12:02:33.625Z,1.75
2022-09-23T12:05:24.508Z,1.87
2022-09-23T12:08:23.314Z,1.60
2022-09-23T12:11:20.708Z,1.70
2022-09-23T12:14:23.808Z,1.70
2022-09-23T12:17:15.640Z,1.60
2022-09-23T12:20:19.492Z,2.17
2022-09-23T12:23:23.702Z,1.80
2022-09-23T12:26:17.276Z,2.00
2022-09-23T12:29:05.667Z,2.05
2022-09-23T12:31:51.166Z,2.10
2022-09-23T12:34:49.129Z,2.43
2022-09-23T12:37:38.992Z,2.20
2022-09-23T12:40:34.677Z,1.80
2022-09-23T12:43:34.920Z,2.60
2022-09-23T12:46:28.148Z,1.97
2022-09-23T12:49:37.229Z,2.00
2022-09-23T12:52:25.360Z,2.10
2022-09-23T12:55:23.272Z,2.10
2022-09-23T12:58:57.611Z,1.93
2022-09-23T13:01:44.382Z,2.15
2022-09-23T13:05:05.477Z,2.10
2022-09-23T13:07:51.056Z,2.00
2022-09-23T13:10:54.674Z,2.20
2022-09-23T13:13:45.730Z,2.60
2022-09-23T13:16:34.930Z,2.13
2022-09-23T13:19:40.950Z,2.30
2022-09-23T13:22:54.306Z,2.17
2022-09-23T13:25:43.693Z,2.25
2022-09-23T13:28:34.033Z,2.40
2022-09-23T13:31:21.249Z,2.33
2022-09-23T13:34:11.502Z,2.50
2022-09-23T13:36:56.754Z,2.40
2022-09-23T13:39:42.038Z,2.37
2022-09-23T13:42:30.255Z,2.40
2022-09-23T13:45:19.158Z,2.90
2022-09-23T13:48:08.429Z,2.50
2022-09-23T13:50:54.703Z,2.37
2022-09-23T13:53:40.411Z,2.63
2022-09-23T13:56:28.531Z,2.07
2022-09-23T13:59:30.229Z,2.57
2022-09-23T14:02:18.783Z,2.20
2022-09-23T14:05:12.550Z,2.20
2022-09-23T14:07:59.661Z,2.70
2022-09-23T14:10:48.099Z,2.30
2022-09-23T14:13:42.568Z,2.47
2022-09-23T14:16:29.892Z,2.20
2022-09-23T14:19:20.768Z,2.10
2022-09-23T14:22:09.249Z,2.47
2022-09-23T14:24:59.019Z,2.13
2022-09-23T14:27:47.165Z,2.33
2022-09-23T14:30:32.659Z,2.57
2022-09-23T14:33:23.468Z,2.20
2022-09-23T14:36:34.603Z,2.30
2022-09-23T14:39:20.389Z,2.20
2022-09-23T14:42:07.327Z,2.43
2022-09-23T14:44:52.874Z,3.10
2022-09-23T14:47:42.015Z,3.43
2022-09-23T14:50:37.992Z,3.33
2022-09-23T14:53:23.222Z,3.40
2022-09-23T14:56:11.450Z,3.53
2022-09-23T14:59:00.011Z,3.53
2022-09-23T15:01:45.751Z,3.13
2022-09-23T15:04:32.604Z,3.30
2022-09-23T15:07:20.823Z,3.43
2022-09-23T15:10:37.577Z,2.90
2022-09-23T15:13:36.760Z,3.50
2022-09-23T15:16:27.597Z,3.30
2022-09-23T15:19:19.859Z,3.20
2022-09-23T15:22:08.529Z,3.27
2022-09-23T15:25:08.311Z,2.97
2022-09-23T15:27:58.045Z,2.93
2022-09-23T15:30:43.631Z,3.00
2022-09-23T15:33:29.926Z,3.30
2022-09-23T15:36:19.518Z,3.40
2022-09-23T15:39:08.592Z,3.23
2022-09-23T15:41:53.810Z,2.83
2022-09-23T15:44:39.562Z,2.83
2022-09-23T15:47:25.354Z,3.20
2022-09-23T15:50:13.629Z,2.53
2022-09-23T15:52:59.500Z,2.97
2022-09-23T15:55:45.442Z,2.90
2022-09-23T15:58:30.927Z,3.00
2022-09-23T16:01:37.166Z,2.77
2022-09-23T16:04:23.029Z,2.67
2022-09-23T16:07:16.223Z,3.10
2022-09-23T16:10:01.440Z,2.60
2022-09-23T16:12:47.426Z,3.43
2022-09-23T16:15:33.772Z,3.20
2022-09-23T16:18:19.280Z,3.40
2022-09-23T16:21:06.473Z,3.70
2022-09-23T16:23:53.490Z,3.30
2022-09-23T16:26:40.544Z,3.23
2022-09-23T16:29:27.020Z,3.30
2022-09-23T16:32:12.834Z,3.40
2022-09-23T16:34:58.536Z,2.70
2022-09-23T16:37:47.021Z,3.00
2022-09-23T16:40:32.678Z,3.00
2022-09-23T16:43:19.567Z,2.83
2022-09-23T16:46:12.184Z,3.63
2022-09-23T16:48:58.989Z,3.10
2022-09-23T16:51:44.293Z,3.43
2022-09-23T16:54:29.970Z,3.60
2022-09-23T16:57:15.547Z,4.30
2022-09-23T17:00:19.414Z,4.10
2022-09-23T17:08:58.898Z,4.47
2022-09-23T17:11:48.239Z,4.03
2022-09-23T17:14:35.086Z,4.00
2022-09-23T17:17:21.837Z,4.13
2022-09-23T17:20:09.359Z,4.00
2022-09-23T17:22:56.250Z,4.03
2022-09-23T17:25:47.838Z,3.70
2022-09-23T17:28:35.883Z,4.30
2022-09-23T17:31:25.128Z,4.10
2022-09-23T17:34:12.978Z,4.20
2022-09-23T17:37:05.781Z,4.20
2022-09-23T17:39:52.307Z,4.55
2022-09-23T17:42:41.720Z,4.70
2022-09-23T17:45:29.428Z,4.43
2022-09-23T17:48:20.393Z,4.30
2022-09-23T17:51:14.437Z,4.83
2022-09-23T17:53:59.798Z,4.63
2022-09-23T17:56:46.587Z,4.50
2022-09-23T17:59:31.991Z,4.80
2022-09-23T18:02:20.927Z,4.40
2022-09-23T18:05:06.641Z,4.73
2022-09-23T18:07:52.101Z,4.23
2022-09-23T18:10:37.380Z,4.43
2022-09-23T18:13:23.691Z,4.73
2022-09-23T18:16:10.264Z,4.33
2022-09-23T18:18:58.195Z,4.47
2022-09-23T18:21:51.750Z,4.70
2022-09-23T18:27:26.716Z,4.73
2022-09-23T18:30:12.800Z,4.23
2022-09-23T18:32:59.792Z,4.83
2022-09-23T18:35:45.299Z,4.23
2022-09-23T18:38:30.733Z,4.40
2022-09-23T18:41:16.916Z,4.73
2022-09-23T18:44:04.576Z,4.33
2022-09-23T18:46:55.656Z,4.67
2022-09-23T18:50:03.102Z,4.43
2022-09-23T18:52:53.586Z,4.50
2022-09-23T18:55:40.835Z,4.60
2022-09-23T18:58:26.488Z,4.07
2022-09-23T19:01:12.777Z,4.37
2022-09-23T19:04:00.337Z,4.30
2022-09-23T19:06:46.745Z,4.40
2022-09-23T19:09:32.188Z,4.00
2022-09-23T19:12:18.198Z,4.30
2022-09-23T19:15:04.938Z,4.40
2022-09-23T19:17:50.531Z,3.90
2022-09-23T19:20:36.269Z,4.63
2022-09-23T19:23:21.851Z,4.20
2022-09-23T19:26:12.913Z,4.20
2022-09-23T19:29:00.417Z,3.73
2022-09-23T19:31:45.915Z,4.20
2022-09-23T19:34:32.513Z,4.27
2022-09-23T19:37:18.373Z,4.50
2022-09-23T19:40:04.659Z,4.00
2022-09-23T19:42:55.090Z,4.00
2022-09-23T19:45:42.962Z,4.20
2022-09-23T19:48:28.517Z,4.50
2022-09-23T19:51:14.203Z,3.93
2022-09-23T19:54:01.200Z,4.43
2022-09-23T19:56:48.710Z,4.20
2022-09-23T19:59:34.252Z,4.20
2022-09-23T20:02:19.818Z,4.30
2022-09-23T20:05:06.104Z,4.07
2022-09-23T20:07:52.007Z,4.10
2022-09-23T20:10:39.738Z,4.33
2022-09-23T20:13:25.101Z,4.83
2022-09-23T20:16:14.178Z,4.50
2022-09-23T20:19:00.841Z,4.70
2022-09-23T20:22:05.856Z,4.30
2022-09-23T20:24:58.798Z,4.60
2022-09-23T20:27:49.464Z,4.85
2022-09-23T20:30:38.654Z,4.70
2022-09-23T20:33:24.206Z,4.07
2022-09-23T20:36:12.924Z,4.23
2022-09-23T20:39:00.511Z,4.60
2022-09-23T20:41:46.129Z,4.83
2022-09-23T20:44:32.094Z,4.23
2022-09-23T20:47:18.633Z,4.33
2022-09-23T20:50:04.219Z,4.57
2022-09-23T20:52:49.694Z,4.30
2022-09-23T20:55:35.040Z,4.37
2022-09-23T20:58:26.978Z,4.80
2022-09-23T21:01:12.366Z,4.23
2022-09-23T21:03:57.593Z,4.43
2022-09-23T21:06:42.952Z,5.07
2022-09-23T21:09:30.941Z,5.03
2022-09-23T21:12:16.487Z,4.40
2022-09-23T21:15:02.482Z,4.87
2022-09-23T21:17:47.614Z,4.90
2022-09-23T21:20:33.040Z,4.67
2022-09-23T21:23:18.484Z,4.63
2022-09-23T21:26:06.638Z,5.40
2022-09-23T21:28:58.302Z,4.43
2022-09-23T21:31:43.883Z,4.67
2022-09-23T21:34:30.094Z,4.67
2022-09-23T21:37:15.298Z,4.83
2022-09-23T21:40:19.193Z,4.90
2022-09-23T21:43:04.277Z,5.18
2022-09-23T21:45:56.963Z,4.43
2022-09-23T21:48:43.204Z,5.05
2022-09-23T21:51:30.808Z,4.40
2022-09-23T21:54:17.060Z,4.77
2022-09-23T21:57:02.251Z,4.90
2022-09-23T21:59:48.032Z,4.70
2022-09-23T22:02:33.836Z,4.60
2022-09-23T22:05:19.586Z,4.83
2022-09-23T22:08:05.240Z,4.40
2022-09-23T22:10:50.461Z,4.53
2022-09-23T22:13:35.757Z,4.37
2022-09-23T22:16:20.979Z,4.33
2022-09-23T22:19:07.158Z,4.33
2022-09-23T22:21:53.696Z,4.50
2022-09-23T22:24:44.176Z,4.30
2022-09-23T22:27:29.907Z,4.60
2022-09-23T22:30:33.832Z,4.43
2022-09-23T22:33:18.985Z,4.32
2022-09-23T22:36:04.473Z,4.20
2022-09-23T22:38:59.041Z,4.17
2022-09-23T22:41:44.852Z,4.23
2022-09-23T22:44:30.642Z,4.33
2022-09-23T22:47:20.209Z,4.37
2022-09-23T22:50:08.208Z,4.03
2022-09-23T22:52:53.558Z,4.00
2022-09-23T22:55:38.733Z,4.33
2022-09-23T22:58:32.097Z,4.00
2022-09-23T23:01:18.027Z,4.27
2022-09-23T23:04:04.182Z,4.07
2022-09-23T23:06:49.908Z,3.73
2022-09-23T23:09:35.527Z,3.70
2022-09-23T23:12:21.311Z,3.83
2022-09-23T23:15:09.331Z,3.93
2022-09-23T23:17:59.253Z,4.03
2022-09-23T23:20:45.630Z,4.07
2022-09-23T23:23:31.097Z,3.87
2022-09-23T23:26:22.253Z,3.63
2022-09-23T23:29:07.291Z,3.80
2022-09-23T23:31:52.556Z,3.90
2022-09-23T23:34:37.757Z,4.03
2022-09-23T23:37:22.919Z,3.70
2022-09-23T23:40:08.644Z,3.60
2022-09-23T23:42:54.458Z,3.70
2022-09-23T23:45:39.970Z,3.97
2022-09-23T23:48:25.725Z,3.37
2022-09-23T23:51:11.685Z,3.70
2022-09-23T23:53:59.675Z,3.60
2022-09-23T23:56:45.181Z,3.70
2022-09-23T23:59:31.092Z,3.80
